sensor_id;sensor_type;location;lat;lon;timestamp;P1;durP1;ratioP1;P2;durP2;ratioP2
69463;SDS011;56665;41.106;16.688;2023-05-19T00:00:05;4.10;;;2.58;;
69463;SDS011;56665;41.106;16.688;2023-05-19T00:03:14;8.98;;;2.42;;
69463;SDS011;56665;41.106;16.688;2023-05-19T00:06:23;5.13;;;2.47;;
69463;SDS011;56665;41.106;16.688;2023-05-19T00:09:29;7.17;;;2.30;;
69463;SDS011;56665;41.106;16.688;2023-05-19T00:12:33;5.15;;;2.28;;
69463;SDS011;56665;41.106;16.688;2023-05-19T00:15:38;5.93;;;2.20;;
69463;SDS011;56665;41.106;16.688;2023-05-19T00:18:42;7.05;;;2.20;;
69463;SDS011;56665;41.106;16.688;2023-05-19T00:21:46;6.85;;;2.20;;
69463;SDS011;56665;41.106;16.688;2023-05-19T00:24:49;4.97;;;2.10;;
69463;SDS011;56665;41.106;16.688;2023-05-19T00:27:53;6.10;;;2.08;;
69463;SDS011;56665;41.106;16.688;2023-05-19T00:30:57;5.68;;;1.98;;
69463;SDS011;56665;41.106;16.688;2023-05-19T00:34:01;7.20;;;2.20;;
69463;SDS011;56665;41.106;16.688;2023-05-19T00:37:05;7.18;;;1.92;;
69463;SDS011;56665;41.106;16.688;2023-05-19T00:40:09;4.67;;;2.17;;
69463;SDS011;56665;41.106;16.688;2023-05-19T00:43:12;5.47;;;2.10;;
69463;SDS011;56665;41.106;16.688;2023-05-19T00:46:17;5.68;;;2.17;;
69463;SDS011;56665;41.106;16.688;2023-05-19T00:49:21;5.03;;;2.10;;
69463;SDS011;56665;41.106;16.688;2023-05-19T00:52:26;9.50;;;2.33;;
69463;SDS011;56665;41.106;16.688;2023-05-19T00:55:30;8.27;;;2.30;;
69463;SDS011;56665;41.106;16.688;2023-05-19T00:58:35;7.35;;;1.98;;
69463;SDS011;56665;41.106;16.688;2023-05-19T01:01:39;4.93;;;2.00;;
69463;SDS011;56665;41.106;16.688;2023-05-19T01:04:43;5.75;;;2.15;;
69463;SDS011;56665;41.106;16.688;2023-05-19T01:07:47;5.57;;;2.25;;
69463;SDS011;56665;41.106;16.688;2023-05-19T01:10:55;5.03;;;2.17;;
69463;SDS011;56665;41.106;16.688;2023-05-19T01:13:59;4.80;;;2.30;;
69463;SDS011;56665;41.106;16.688;2023-05-19T01:17:08;5.45;;;2.10;;
69463;SDS011;56665;41.106;16.688;2023-05-19T01:20:37;5.57;;;2.38;;
69463;SDS011;56665;41.106;16.688;2023-05-19T01:30:39;8.20;;;2.90;;
69463;SDS011;56665;41.106;16.688;2023-05-19T01:33:43;8.05;;;3.10;;
69463;SDS011;56665;41.106;16.688;2023-05-19T01:36:48;6.65;;;2.80;;
69463;SDS011;56665;41.106;16.688;2023-05-19T01:39:53;5.68;;;3.15;;
69463;SDS011;56665;41.106;16.688;2023-05-19T01:42:59;5.70;;;2.47;;
69463;SDS011;56665;41.106;16.688;2023-05-19T01:46:04;4.95;;;2.10;;
69463;SDS011;56665;41.106;16.688;2023-05-19T01:49:09;7.85;;;2.20;;
69463;SDS011;56665;41.106;16.688;2023-05-19T01:52:13;5.00;;;2.10;;
69463;SDS011;56665;41.106;16.688;2023-05-19T01:55:18;4.55;;;2.20;;
69463;SDS011;56665;41.106;16.688;2023-05-19T02:01:56;5.35;;;2.38;;
69463;SDS011;56665;41.106;16.688;2023-05-19T02:05:08;6.75;;;2.35;;
69463;SDS011;56665;41.106;16.688;2023-05-19T02:18:10;4.40;;;2.42;;
69463;SDS011;56665;41.106;16.688;2023-05-19T02:21:15;9.73;;;3.42;;
69463;SDS011;56665;41.106;16.688;2023-05-19T02:24:19;5.93;;;3.13;;
69463;SDS011;56665;41.106;16.688;2023-05-19T02:27:24;6.38;;;2.97;;
69463;SDS011;56665;41.106;16.688;2023-05-19T02:30:28;7.00;;;2.57;;
69463;SDS011;56665;41.106;16.688;2023-05-19T02:33:36;4.80;;;2.40;;
69463;SDS011;56665;41.106;16.688;2023-05-19T02:36:40;7.32;;;2.33;;
69463;SDS011;56665;41.106;16.688;2023-05-19T02:39:45;5.35;;;2.45;;
69463;SDS011;56665;41.106;16.688;2023-05-19T02:42:49;7.10;;;2.10;;
69463;SDS011;56665;41.106;16.688;2023-05-19T02:45:52;6.73;;;2.33;;
69463;SDS011;56665;41.106;16.688;2023-05-19T02:48:56;5.78;;;2.53;;
69463;SDS011;56665;41.106;16.688;2023-05-19T02:52:03;4.90;;;2.40;;
69463;SDS011;56665;41.106;16.688;2023-05-19T02:55:08;6.05;;;2.47;;
69463;SDS011;56665;41.106;16.688;2023-05-19T02:58:12;4.25;;;2.25;;
69463;SDS011;56665;41.106;16.688;2023-05-19T03:01:15;5.40;;;2.67;;
69463;SDS011;56665;41.106;16.688;2023-05-19T03:04:19;4.72;;;2.10;;
69463;SDS011;56665;41.106;16.688;2023-05-19T03:07:23;4.75;;;2.20;;
69463;SDS011;56665;41.106;16.688;2023-05-19T03:10:27;7.47;;;2.30;;
69463;SDS011;56665;41.106;16.688;2023-05-19T03:13:31;9.82;;;2.50;;
69463;SDS011;56665;41.106;16.688;2023-05-19T03:16:35;7.07;;;2.17;;
69463;SDS011;56665;41.106;16.688;2023-05-19T03:19:38;9.40;;;2.30;;
69463;SDS011;56665;41.106;16.688;2023-05-19T03:22:43;5.88;;;2.33;;
69463;SDS011;56665;41.106;16.688;2023-05-19T03:25:49;6.90;;;2.58;;
69463;SDS011;56665;41.106;16.688;2023-05-19T03:28:53;4.32;;;2.38;;
69463;SDS011;56665;41.106;16.688;2023-05-19T03:31:57;6.17;;;2.47;;
69463;SDS011;56665;41.106;16.688;2023-05-19T03:35:03;5.55;;;2.30;;
69463;SDS011;56665;41.106;16.688;2023-05-19T03:38:07;8.95;;;2.47;;
69463;SDS011;56665;41.106;16.688;2023-05-19T03:41:12;5.03;;;2.10;;
69463;SDS011;56665;41.106;16.688;2023-05-19T03:44:16;3.88;;;1.92;;
69463;SDS011;56665;41.106;16.688;2023-05-19T03:47:20;6.03;;;2.30;;
69463;SDS011;56665;41.106;16.688;2023-05-19T03:50:49;6.28;;;3.08;;
69463;SDS011;56665;41.106;16.688;2023-05-19T03:54:00;4.85;;;2.55;;
69463;SDS011;56665;41.106;16.688;2023-05-19T03:57:04;6.25;;;2.55;;
69463;SDS011;56665;41.106;16.688;2023-05-19T04:00:08;4.22;;;2.30;;
69463;SDS011;56665;41.106;16.688;2023-05-19T04:03:15;6.13;;;2.43;;
69463;SDS011;56665;41.106;16.688;2023-05-19T04:06:19;4.90;;;2.10;;
69463;SDS011;56665;41.106;16.688;2023-05-19T04:09:22;6.78;;;2.33;;
69463;SDS011;56665;41.106;16.688;2023-05-19T04:12:26;5.47;;;2.38;;
69463;SDS011;56665;41.106;16.688;2023-05-19T04:15:30;4.57;;;2.03;;
69463;SDS011;56665;41.106;16.688;2023-05-19T04:18:34;5.07;;;2.27;;
69463;SDS011;56665;41.106;16.688;2023-05-19T04:21:38;6.00;;;2.33;;
69463;SDS011;56665;41.106;16.688;2023-05-19T04:24:41;6.72;;;2.50;;
69463;SDS011;56665;41.106;16.688;2023-05-19T04:27:45;11.85;;;5.45;;
69463;SDS011;56665;41.106;16.688;2023-05-19T04:30:50;22.13;;;9.35;;
69463;SDS011;56665;41.106;16.688;2023-05-19T04:33:54;18.43;;;8.13;;
69463;SDS011;56665;41.106;16.688;2023-05-19T04:36:58;10.65;;;4.60;;
69463;SDS011;56665;41.106;16.688;2023-05-19T04:40:03;7.93;;;3.30;;
69463;SDS011;56665;41.106;16.688;2023-05-19T04:43:09;7.43;;;2.88;;
69463;SDS011;56665;41.106;16.688;2023-05-19T04:46:14;5.30;;;2.60;;
69463;SDS011;56665;41.106;16.688;2023-05-19T04:49:19;6.93;;;2.30;;
69463;SDS011;56665;41.106;16.688;2023-05-19T04:52:24;8.35;;;2.63;;
69463;SDS011;56665;41.106;16.688;2023-05-19T04:55:27;9.63;;;4.90;;
69463;SDS011;56665;41.106;16.688;2023-05-19T04:58:31;7.82;;;2.72;;
69463;SDS011;56665;41.106;16.688;2023-05-19T05:01:37;4.30;;;2.00;;
69463;SDS011;56665;41.106;16.688;2023-05-19T05:04:43;4.23;;;2.00;;
69463;SDS011;56665;41.106;16.688;2023-05-19T05:07:49;4.80;;;2.30;;
69463;SDS011;56665;41.106;16.688;2023-05-19T05:10:53;7.32;;;2.83;;
69463;SDS011;56665;41.106;16.688;2023-05-19T05:13:58;3.85;;;1.90;;
69463;SDS011;56665;41.106;16.688;2023-05-19T05:17:05;6.25;;;2.70;;
69463;SDS011;56665;41.106;16.688;2023-05-19T05:20:10;5.80;;;2.63;;
69463;SDS011;56665;41.106;16.688;2023-05-19T05:23:15;6.55;;;2.35;;
69463;SDS011;56665;41.106;16.688;2023-05-19T05:26:21;4.82;;;2.55;;
69463;SDS011;56665;41.106;16.688;2023-05-19T05:29:28;3.78;;;2.20;;
69463;SDS011;56665;41.106;16.688;2023-05-19T05:32:32;6.75;;;2.47;;
69463;SDS011;56665;41.106;16.688;2023-05-19T05:35:37;7.13;;;2.50;;
69463;SDS011;56665;41.106;16.688;2023-05-19T05:38:43;6.95;;;3.85;;
69463;SDS011;56665;41.106;16.688;2023-05-19T05:41:47;9.95;;;4.28;;
69463;SDS011;56665;41.106;16.688;2023-05-19T05:44:51;15.65;;;7.78;;
69463;SDS011;56665;41.106;16.688;2023-05-19T05:47:54;18.85;;;9.40;;
69463;SDS011;56665;41.106;16.688;2023-05-19T05:50:59;26.27;;;11.70;;
69463;SDS011;56665;41.106;16.688;2023-05-19T05:54:07;19.25;;;11.20;;
69463;SDS011;56665;41.106;16.688;2023-05-19T05:57:18;13.20;;;6.05;;
69463;SDS011;56665;41.106;16.688;2023-05-19T06:00:21;7.45;;;4.63;;
69463;SDS011;56665;41.106;16.688;2023-05-19T06:03:28;6.97;;;4.22;;
69463;SDS011;56665;41.106;16.688;2023-05-19T06:06:38;11.00;;;4.50;;
69463;SDS011;56665;41.106;16.688;2023-05-19T06:09:42;8.55;;;4.13;;
69463;SDS011;56665;41.106;16.688;2023-05-19T06:12:46;7.47;;;4.55;;
69463;SDS011;56665;41.106;16.688;2023-05-19T06:15:50;12.85;;;5.78;;
69463;SDS011;56665;41.106;16.688;2023-05-19T06:19:00;13.20;;;8.20;;
69463;SDS011;56665;41.106;16.688;2023-05-19T06:22:04;17.00;;;9.23;;
69463;SDS011;56665;41.106;16.688;2023-05-19T06:25:08;15.25;;;9.15;;
69463;SDS011;56665;41.106;16.688;2023-05-19T06:28:12;16.92;;;9.65;;
69463;SDS011;56665;41.106;16.688;2023-05-19T06:31:15;11.70;;;5.75;;
69463;SDS011;56665;41.106;16.688;2023-05-19T06:34:27;9.25;;;4.15;;
69463;SDS011;56665;41.106;16.688;2023-05-19T06:37:31;10.40;;;4.57;;
69463;SDS011;56665;41.106;16.688;2023-05-19T06:40:35;9.05;;;4.50;;
69463;SDS011;56665;41.106;16.688;2023-05-19T06:43:39;10.68;;;5.10;;
69463;SDS011;56665;41.106;16.688;2023-05-19T06:46:47;13.68;;;5.57;;
69463;SDS011;56665;41.106;16.688;2023-05-19T06:49:51;14.95;;;4.53;;
69463;SDS011;56665;41.106;16.688;2023-05-19T06:53:00;7.20;;;3.70;;
69463;SDS011;56665;41.106;16.688;2023-05-19T06:56:03;9.02;;;3.65;;
69463;SDS011;56665;41.106;16.688;2023-05-19T06:59:10;10.45;;;3.30;;
69463;SDS011;56665;41.106;16.688;2023-05-19T07:02:14;7.97;;;3.10;;
69463;SDS011;56665;41.106;16.688;2023-05-19T07:05:18;9.38;;;2.70;;
69463;SDS011;56665;41.106;16.688;2023-05-19T07:08:27;7.20;;;2.70;;
69463;SDS011;56665;41.106;16.688;2023-05-19T07:11:31;6.45;;;3.38;;
69463;SDS011;56665;41.106;16.688;2023-05-19T07:14:35;5.53;;;3.30;;
69463;SDS011;56665;41.106;16.688;2023-05-19T07:17:39;6.28;;;2.67;;
69463;SDS011;56665;41.106;16.688;2023-05-19T07:20:44;9.98;;;3.17;;
69463;SDS011;56665;41.106;16.688;2023-05-19T07:23:48;3.90;;;2.33;;
69463;SDS011;56665;41.106;16.688;2023-05-19T07:26:52;7.55;;;2.67;;
69463;SDS011;56665;41.106;16.688;2023-05-19T07:29:55;6.18;;;2.88;;
69463;SDS011;56665;41.106;16.688;2023-05-19T07:32:59;8.63;;;3.03;;
69463;SDS011;56665;41.106;16.688;2023-05-19T07:36:03;5.93;;;2.92;;
69463;SDS011;56665;41.106;16.688;2023-05-19T07:39:07;16.77;;;4.57;;
69463;SDS011;56665;41.106;16.688;2023-05-19T07:42:10;9.70;;;5.00;;
69463;SDS011;56665;41.106;16.688;2023-05-19T07:45:14;10.50;;;4.53;;
69463;SDS011;56665;41.106;16.688;2023-05-19T07:48:18;8.55;;;3.47;;
69463;SDS011;56665;41.106;16.688;2023-05-19T07:51:24;7.13;;;3.13;;
69463;SDS011;56665;41.106;16.688;2023-05-19T07:54:28;6.83;;;3.60;;
69463;SDS011;56665;41.106;16.688;2023-05-19T07:57:32;5.47;;;3.70;;
69463;SDS011;56665;41.106;16.688;2023-05-19T08:00:35;7.57;;;2.85;;
69463;SDS011;56665;41.106;16.688;2023-05-19T08:03:39;7.75;;;2.65;;
69463;SDS011;56665;41.106;16.688;2023-05-19T08:06:43;6.30;;;2.58;;
69463;SDS011;56665;41.106;16.688;2023-05-19T08:09:46;5.33;;;2.23;;
69463;SDS011;56665;41.106;16.688;2023-05-19T08:12:50;6.75;;;2.38;;
69463;SDS011;56665;41.106;16.688;2023-05-19T08:15:54;5.80;;;2.80;;
69463;SDS011;56665;41.106;16.688;2023-05-19T08:19:01;10.95;;;3.78;;
69463;SDS011;56665;41.106;16.688;2023-05-19T08:22:07;10.38;;;4.47;;
69463;SDS011;56665;41.106;16.688;2023-05-19T08:25:11;7.10;;;3.90;;
69463;SDS011;56665;41.106;16.688;2023-05-19T08:28:15;4.70;;;2.83;;
69463;SDS011;56665;41.106;16.688;2023-05-19T08:31:19;9.10;;;3.00;;
69463;SDS011;56665;41.106;16.688;2023-05-19T08:34:23;5.20;;;2.75;;
69463;SDS011;56665;41.106;16.688;2023-05-19T08:37:26;5.90;;;2.45;;
69463;SDS011;56665;41.106;16.688;2023-05-19T08:40:30;6.07;;;2.60;;
69463;SDS011;56665;41.106;16.688;2023-05-19T08:43:37;4.70;;;2.50;;
69463;SDS011;56665;41.106;16.688;2023-05-19T08:46:41;5.15;;;2.47;;
69463;SDS011;56665;41.106;16.688;2023-05-19T08:49:46;6.03;;;2.50;;
69463;SDS011;56665;41.106;16.688;2023-05-19T08:56:24;190.27;;;14.13;;
69463;SDS011;56665;41.106;16.688;2023-05-19T08:59:29;76.13;;;7.38;;
69463;SDS011;56665;41.106;16.688;2023-05-19T09:02:33;86.13;;;8.77;;
69463;SDS011;56665;41.106;16.688;2023-05-19T09:05:39;31.08;;;4.40;;
69463;SDS011;56665;41.106;16.688;2023-05-19T09:08:44;17.20;;;2.75;;
69463;SDS011;56665;41.106;16.688;2023-05-19T09:11:49;6.20;;;2.67;;
69463;SDS011;56665;41.106;16.688;2023-05-19T09:14:52;6.40;;;2.70;;
69463;SDS011;56665;41.106;16.688;2023-05-19T09:21:13;9.95;;;2.92;;
69463;SDS011;56665;41.106;16.688;2023-05-19T09:24:17;9.05;;;2.95;;
69463;SDS011;56665;41.106;16.688;2023-05-19T09:27:21;6.83;;;2.93;;
69463;SDS011;56665;41.106;16.688;2023-05-19T09:30:27;8.88;;;2.80;;
69463;SDS011;56665;41.106;16.688;2023-05-19T09:33:32;7.15;;;2.50;;
69463;SDS011;56665;41.106;16.688;2023-05-19T09:36:40;11.23;;;2.50;;
69463;SDS011;56665;41.106;16.688;2023-05-19T09:39:45;5.60;;;2.50;;
69463;SDS011;56665;41.106;16.688;2023-05-19T09:42:53;6.77;;;2.60;;
69463;SDS011;56665;41.106;16.688;2023-05-19T09:46:02;8.65;;;3.33;;
69463;SDS011;56665;41.106;16.688;2023-05-19T09:49:07;6.13;;;2.70;;
69463;SDS011;56665;41.106;16.688;2023-05-19T09:52:13;6.10;;;2.38;;
69463;SDS011;56665;41.106;16.688;2023-05-19T09:55:18;6.78;;;2.80;;
69463;SDS011;56665;41.106;16.688;2023-05-19T09:58:25;5.30;;;2.80;;
69463;SDS011;56665;41.106;16.688;2023-05-19T10:01:30;6.45;;;2.70;;
69463;SDS011;56665;41.106;16.688;2023-05-19T10:04:35;6.30;;;2.80;;
69463;SDS011;56665;41.106;16.688;2023-05-19T10:07:40;6.25;;;2.63;;
69463;SDS011;56665;41.106;16.688;2023-05-19T10:10:50;5.50;;;2.65;;
69463;SDS011;56665;41.106;16.688;2023-05-19T10:13:54;6.90;;;2.57;;
69463;SDS011;56665;41.106;16.688;2023-05-19T10:16:58;5.28;;;2.55;;
69463;SDS011;56665;41.106;16.688;2023-05-19T10:20:01;6.90;;;3.03;;
69463;SDS011;56665;41.106;16.688;2023-05-19T10:23:06;7.85;;;3.08;;
69463;SDS011;56665;41.106;16.688;2023-05-19T10:26:10;8.02;;;3.17;;
69463;SDS011;56665;41.106;16.688;2023-05-19T10:29:16;5.53;;;2.60;;
69463;SDS011;56665;41.106;16.688;2023-05-19T10:32:25;7.10;;;3.00;;
69463;SDS011;56665;41.106;16.688;2023-05-19T10:39:03;6.95;;;2.78;;
69463;SDS011;56665;41.106;16.688;2023-05-19T10:42:14;9.13;;;2.92;;
69463;SDS011;56665;41.106;16.688;2023-05-19T10:45:22;7.60;;;3.00;;
69463;SDS011;56665;41.106;16.688;2023-05-19T10:48:33;6.38;;;2.67;;
69463;SDS011;56665;41.106;16.688;2023-05-19T10:51:40;6.80;;;3.00;;
69463;SDS011;56665;41.106;16.688;2023-05-19T10:54:47;5.80;;;2.88;;
69463;SDS011;56665;41.106;16.688;2023-05-19T10:57:54;8.82;;;3.42;;
69463;SDS011;56665;41.106;16.688;2023-05-19T11:01:01;6.60;;;2.60;;
69463;SDS011;56665;41.106;16.688;2023-05-19T11:04:05;8.23;;;2.70;;
69463;SDS011;56665;41.106;16.688;2023-05-19T11:07:14;6.68;;;2.90;;
69463;SDS011;56665;41.106;16.688;2023-05-19T11:10:22;8.20;;;2.63;;
69463;SDS011;56665;41.106;16.688;2023-05-19T11:13:26;5.95;;;2.30;;
69463;SDS011;56665;41.106;16.688;2023-05-19T11:16:32;6.63;;;2.67;;
69463;SDS011;56665;41.106;16.688;2023-05-19T11:19:37;4.63;;;2.50;;
69463;SDS011;56665;41.106;16.688;2023-05-19T11:22:41;5.18;;;2.60;;
69463;SDS011;56665;41.106;16.688;2023-05-19T11:25:45;5.15;;;2.22;;
69463;SDS011;56665;41.106;16.688;2023-05-19T11:28:50;6.07;;;3.05;;
69463;SDS011;56665;41.106;16.688;2023-05-19T11:31:54;6.03;;;2.53;;
69463;SDS011;56665;41.106;16.688;2023-05-19T11:34:58;5.68;;;2.10;;
69463;SDS011;56665;41.106;16.688;2023-05-19T11:38:03;4.85;;;2.58;;
69463;SDS011;56665;41.106;16.688;2023-05-19T11:41:07;5.07;;;2.83;;
69463;SDS011;56665;41.106;16.688;2023-05-19T11:44:11;5.70;;;2.28;;
69463;SDS011;56665;41.106;16.688;2023-05-19T11:47:15;4.10;;;2.60;;
69463;SDS011;56665;41.106;16.688;2023-05-19T11:50:19;4.57;;;2.20;;
69463;SDS011;56665;41.106;16.688;2023-05-19T11:53:23;6.88;;;2.95;;
69463;SDS011;56665;41.106;16.688;2023-05-19T11:56:32;6.32;;;2.55;;
69463;SDS011;56665;41.106;16.688;2023-05-19T11:59:40;5.45;;;2.90;;
69463;SDS011;56665;41.106;16.688;2023-05-19T12:02:49;5.13;;;2.63;;
69463;SDS011;56665;41.106;16.688;2023-05-19T12:05:53;5.20;;;2.55;;
69463;SDS011;56665;41.106;16.688;2023-05-19T12:08:57;5.03;;;2.30;;
69463;SDS011;56665;41.106;16.688;2023-05-19T12:12:02;4.15;;;2.33;;
69463;SDS011;56665;41.106;16.688;2023-05-19T12:15:05;5.72;;;2.30;;
69463;SDS011;56665;41.106;16.688;2023-05-19T12:18:10;5.73;;;2.60;;
69463;SDS011;56665;41.106;16.688;2023-05-19T12:21:14;7.80;;;2.42;;
69463;SDS011;56665;41.106;16.688;2023-05-19T12:24:19;6.18;;;2.50;;
69463;SDS011;56665;41.106;16.688;2023-05-19T12:27:24;5.20;;;2.25;;
69463;SDS011;56665;41.106;16.688;2023-05-19T12:30:29;5.53;;;2.40;;
69463;SDS011;56665;41.106;16.688;2023-05-19T12:33:33;5.87;;;2.50;;
69463;SDS011;56665;41.106;16.688;2023-05-19T12:36:37;5.20;;;2.17;;
69463;SDS011;56665;41.106;16.688;2023-05-19T12:39:43;6.30;;;2.65;;
69463;SDS011;56665;41.106;16.688;2023-05-19T12:42:48;8.27;;;3.03;;
69463;SDS011;56665;41.106;16.688;2023-05-19T12:45:54;7.55;;;2.53;;
69463;SDS011;56665;41.106;16.688;2023-05-19T12:48:58;8.37;;;2.80;;
69463;SDS011;56665;41.106;16.688;2023-05-19T12:52:03;8.50;;;3.15;;
69463;SDS011;56665;41.106;16.688;2023-05-19T12:55:08;7.95;;;2.90;;
69463;SDS011;56665;41.106;16.688;2023-05-19T12:58:14;6.13;;;2.80;;
69463;SDS011;56665;41.106;16.688;2023-05-19T13:01:18;7.32;;;4.07;;
69463;SDS011;56665;41.106;16.688;2023-05-19T13:04:22;6.93;;;3.40;;
69463;SDS011;56665;41.106;16.688;2023-05-19T13:07:26;6.28;;;3.30;;
69463;SDS011;56665;41.106;16.688;2023-05-19T13:10:31;6.55;;;2.40;;
69463;SDS011;56665;41.106;16.688;2023-05-19T13:13:36;4.88;;;2.53;;
69463;SDS011;56665;41.106;16.688;2023-05-19T13:16:40;7.15;;;2.42;;
69463;SDS011;56665;41.106;16.688;2023-05-19T13:19:44;3.92;;;2.03;;
69463;SDS011;56665;41.106;16.688;2023-05-19T13:22:48;5.00;;;2.30;;
69463;SDS011;56665;41.106;16.688;2023-05-19T13:25:52;5.90;;;2.50;;
69463;SDS011;56665;41.106;16.688;2023-05-19T13:28:56;6.28;;;2.17;;
69463;SDS011;56665;41.106;16.688;2023-05-19T13:32:00;5.72;;;2.35;;
69463;SDS011;56665;41.106;16.688;2023-05-19T13:35:04;5.70;;;2.60;;
69463;SDS011;56665;41.106;16.688;2023-05-19T13:38:08;5.03;;;2.50;;
69463;SDS011;56665;41.106;16.688;2023-05-19T13:41:12;10.65;;;2.95;;
69463;SDS011;56665;41.106;16.688;2023-05-19T13:44:16;9.98;;;2.50;;
69463;SDS011;56665;41.106;16.688;2023-05-19T13:47:20;4.30;;;2.40;;
69463;SDS011;56665;41.106;16.688;2023-05-19T13:50:25;7.15;;;2.83;;
69463;SDS011;56665;41.106;16.688;2023-05-19T13:53:29;6.90;;;2.80;;
69463;SDS011;56665;41.106;16.688;2023-05-19T13:56:35;7.28;;;2.53;;
69463;SDS011;56665;41.106;16.688;2023-05-19T13:59:38;6.55;;;2.58;;
69463;SDS011;56665;41.106;16.688;2023-05-19T14:02:43;8.30;;;2.60;;
69463;SDS011;56665;41.106;16.688;2023-05-19T14:05:47;4.45;;;2.28;;
69463;SDS011;56665;41.106;16.688;2023-05-19T14:08:51;8.00;;;3.47;;
69463;SDS011;56665;41.106;16.688;2023-05-19T14:11:55;5.90;;;2.60;;
69463;SDS011;56665;41.106;16.688;2023-05-19T14:14:59;7.53;;;2.90;;
69463;SDS011;56665;41.106;16.688;2023-05-19T14:18:04;7.00;;;2.80;;
69463;SDS011;56665;41.106;16.688;2023-05-19T14:21:07;7.45;;;2.90;;
69463;SDS011;56665;41.106;16.688;2023-05-19T14:24:11;11.17;;;2.97;;
69463;SDS011;56665;41.106;16.688;2023-05-19T14:27:15;11.10;;;3.70;;
69463;SDS011;56665;41.106;16.688;2023-05-19T14:30:19;12.73;;;3.65;;
69463;SDS011;56665;41.106;16.688;2023-05-19T14:33:22;12.13;;;3.83;;
69463;SDS011;56665;41.106;16.688;2023-05-19T14:36:26;8.65;;;3.30;;
69463;SDS011;56665;41.106;16.688;2023-05-19T14:39:30;8.90;;;3.30;;
69463;SDS011;56665;41.106;16.688;2023-05-19T14:42:33;7.50;;;2.78;;
69463;SDS011;56665;41.106;16.688;2023-05-19T14:45:37;8.07;;;2.95;;
69463;SDS011;56665;41.106;16.688;2023-05-19T14:48:41;9.98;;;3.28;;
69463;SDS011;56665;41.106;16.688;2023-05-19T14:51:44;5.93;;;2.63;;
69463;SDS011;56665;41.106;16.688;2023-05-19T14:54:48;5.87;;;3.10;;
69463;SDS011;56665;41.106;16.688;2023-05-19T14:57:52;5.97;;;2.70;;
69463;SDS011;56665;41.106;16.688;2023-05-19T15:00:56;5.55;;;2.90;;
69463;SDS011;56665;41.106;16.688;2023-05-19T15:04:01;5.07;;;2.50;;
69463;SDS011;56665;41.106;16.688;2023-05-19T15:07:05;5.97;;;2.90;;
69463;SDS011;56665;41.106;16.688;2023-05-19T15:10:09;4.65;;;2.70;;
69463;SDS011;56665;41.106;16.688;2023-05-19T15:13:12;5.25;;;2.35;;
69463;SDS011;56665;41.106;16.688;2023-05-19T15:16:16;5.80;;;2.50;;
69463;SDS011;56665;41.106;16.688;2023-05-19T15:19:20;5.33;;;2.90;;
69463;SDS011;56665;41.106;16.688;2023-05-19T15:22:23;5.30;;;2.95;;
69463;SDS011;56665;41.106;16.688;2023-05-19T15:25:27;5.28;;;2.80;;
69463;SDS011;56665;41.106;16.688;2023-05-19T15:28:31;6.47;;;2.80;;
69463;SDS011;56665;41.106;16.688;2023-05-19T15:31:35;7.10;;;3.28;;
69463;SDS011;56665;41.106;16.688;2023-05-19T15:34:39;5.73;;;2.80;;
69463;SDS011;56665;41.106;16.688;2023-05-19T15:37:43;7.28;;;3.88;;
69463;SDS011;56665;41.106;16.688;2023-05-19T15:40:47;6.03;;;3.28;;
69463;SDS011;56665;41.106;16.688;2023-05-19T15:43:51;5.40;;;2.90;;
69463;SDS011;56665;41.106;16.688;2023-05-19T15:46:55;11.70;;;3.13;;
69463;SDS011;56665;41.106;16.688;2023-05-19T15:49:59;6.75;;;2.97;;
69463;SDS011;56665;41.106;16.688;2023-05-19T15:53:03;10.05;;;2.92;;
69463;SDS011;56665;41.106;16.688;2023-05-19T15:56:08;7.00;;;3.40;;
69463;SDS011;56665;41.106;16.688;2023-05-19T15:59:12;7.20;;;3.45;;
69463;SDS011;56665;41.106;16.688;2023-05-19T16:02:16;6.77;;;3.50;;
69463;SDS011;56665;41.106;16.688;2023-05-19T16:05:20;5.95;;;3.40;;
69463;SDS011;56665;41.106;16.688;2023-05-19T16:08:23;8.17;;;3.30;;
69463;SDS011;56665;41.106;16.688;2023-05-19T16:11:28;7.68;;;3.88;;
69463;SDS011;56665;41.106;16.688;2023-05-19T16:14:31;5.55;;;3.10;;
69463;SDS011;56665;41.106;16.688;2023-05-19T16:17:38;7.07;;;3.77;;
69463;SDS011;56665;41.106;16.688;2023-05-19T16:20:43;8.02;;;3.88;;
69463;SDS011;56665;41.106;16.688;2023-05-19T16:23:46;8.75;;;3.65;;
69463;SDS011;56665;41.106;16.688;2023-05-19T16:26:50;6.60;;;3.42;;
69463;SDS011;56665;41.106;16.688;2023-05-19T16:29:55;6.88;;;3.38;;
69463;SDS011;56665;41.106;16.688;2023-05-19T16:32:59;8.00;;;3.53;;
69463;SDS011;56665;41.106;16.688;2023-05-19T16:36:03;9.48;;;4.30;;
69463;SDS011;56665;41.106;16.688;2023-05-19T16:39:08;7.50;;;3.50;;
69463;SDS011;56665;41.106;16.688;2023-05-19T16:42:12;8.15;;;3.15;;
69463;SDS011;56665;41.106;16.688;2023-05-19T16:45:16;6.13;;;4.00;;
69463;SDS011;56665;41.106;16.688;2023-05-19T16:48:20;6.53;;;3.70;;
69463;SDS011;56665;41.106;16.688;2023-05-19T16:51:23;7.45;;;4.40;;
69463;SDS011;56665;41.106;16.688;2023-05-19T16:54:27;7.90;;;4.80;;
69463;SDS011;56665;41.106;16.688;2023-05-19T16:57:31;7.88;;;4.20;;
69463;SDS011;56665;41.106;16.688;2023-05-19T17:00:34;9.52;;;4.40;;
69463;SDS011;56665;41.106;16.688;2023-05-19T17:03:40;7.90;;;4.03;;
69463;SDS011;56665;41.106;16.688;2023-05-19T17:06:44;7.13;;;4.38;;
69463;SDS011;56665;41.106;16.688;2023-05-19T17:09:49;7.90;;;4.40;;
69463;SDS011;56665;41.106;16.688;2023-05-19T17:12:53;9.02;;;4.43;;
69463;SDS011;56665;41.106;16.688;2023-05-19T17:15:57;8.00;;;4.68;;
69463;SDS011;56665;41.106;16.688;2023-05-19T17:19:02;11.30;;;5.57;;
69463;SDS011;56665;41.106;16.688;2023-05-19T17:22:06;10.75;;;5.28;;
69463;SDS011;56665;41.106;16.688;2023-05-19T17:25:09;8.00;;;4.35;;
69463;SDS011;56665;41.106;16.688;2023-05-19T17:28:13;6.90;;;4.25;;
69463;SDS011;56665;41.106;16.688;2023-05-19T17:31:17;7.10;;;3.67;;
69463;SDS011;56665;41.106;16.688;2023-05-19T17:34:21;8.83;;;4.67;;
69463;SDS011;56665;41.106;16.688;2023-05-19T17:37:24;5.45;;;3.58;;
69463;SDS011;56665;41.106;16.688;2023-05-19T17:40:28;7.18;;;3.83;;
69463;SDS011;56665;41.106;16.688;2023-05-19T17:43:32;8.88;;;4.00;;
69463;SDS011;56665;41.106;16.688;2023-05-19T17:46:35;6.32;;;3.90;;
69463;SDS011;56665;41.106;16.688;2023-05-19T17:49:41;7.77;;;3.97;;
69463;SDS011;56665;41.106;16.688;2023-05-19T17:52:45;12.80;;;4.63;;
69463;SDS011;56665;41.106;16.688;2023-05-19T17:55:49;9.27;;;4.18;;
69463;SDS011;56665;41.106;16.688;2023-05-19T17:58:54;8.88;;;4.10;;
69463;SDS011;56665;41.106;16.688;2023-05-19T18:01:58;8.98;;;3.58;;
69463;SDS011;56665;41.106;16.688;2023-05-19T18:05:02;7.60;;;3.90;;
69463;SDS011;56665;41.106;16.688;2023-05-19T18:08:06;9.20;;;5.00;;
69463;SDS011;56665;41.106;16.688;2023-05-19T18:11:11;10.18;;;5.00;;
69463;SDS011;56665;41.106;16.688;2023-05-19T18:14:18;12.20;;;6.60;;
69463;SDS011;56665;41.106;16.688;2023-05-19T18:17:22;15.23;;;7.43;;
69463;SDS011;56665;41.106;16.688;2023-05-19T18:20:25;9.40;;;5.83;;
69463;SDS011;56665;41.106;16.688;2023-05-19T18:23:29;12.05;;;6.80;;
69463;SDS011;56665;41.106;16.688;2023-05-19T18:26:33;16.63;;;8.55;;
69463;SDS011;56665;41.106;16.688;2023-05-19T18:29:40;10.27;;;6.13;;
69463;SDS011;56665;41.106;16.688;2023-05-19T18:32:44;11.75;;;6.90;;
69463;SDS011;56665;41.106;16.688;2023-05-19T18:35:48;9.67;;;5.27;;
69463;SDS011;56665;41.106;16.688;2023-05-19T18:38:51;15.57;;;6.88;;
69463;SDS011;56665;41.106;16.688;2023-05-19T18:41:55;10.07;;;6.25;;
69463;SDS011;56665;41.106;16.688;2023-05-19T18:44:59;10.40;;;5.10;;